createdAt,value
2022-08-17T00:02:27.278Z,19.38
2022-08-17T00:05:36.657Z,19.34
2022-08-17T00:08:45.546Z,19.30
2022-08-17T00:12:41.605Z,19.27
2022-08-17T00:15:19.996Z,19.24
2022-08-17T00:18:58.346Z,19.22
2022-08-17T00:22:32.378Z,19.19
2022-08-17T00:25:22.851Z,19.14
2022-08-17T00:28:29.433Z,19.11
2022-08-17T00:31:39.821Z,19.10
2022-08-17T00:34:45.959Z,19.05
2022-08-17T00:37:52.283Z,19.00
2022-08-17T00:41:00.787Z,18.95
2022-08-17T00:44:08.743Z,18.92
2022-08-17T00:47:14.882Z,18.91
2022-08-17T00:50:21.942Z,18.86
2022-08-17T00:53:30.767Z,18.83
2022-08-17T00:56:41.185Z,18.81
2022-08-17T01:00:03.309Z,18.79
2022-08-17T01:03:14.180Z,18.78
2022-08-17T01:06:21.914Z,18.74
2022-08-17T01:09:29.003Z,18.71
2022-08-17T01:12:37.526Z,18.69
2022-08-17T01:15:50.248Z,18.66
2022-08-17T01:18:59.612Z,18.62
2022-08-17T01:22:09.408Z,18.60
2022-08-17T01:25:16.186Z,18.57
2022-08-17T01:28:52.526Z,18.53
2022-08-17T01:31:55.302Z,18.48
2022-08-17T01:35:01.990Z,18.46
2022-08-17T01:38:09.736Z,18.42
2022-08-17T01:41:20.217Z,18.38
2022-08-17T01:44:28.450Z,18.32
2022-08-17T01:47:36.152Z,18.29
2022-08-17T01:50:45.464Z,18.27
2022-08-17T01:53:58.378Z,18.24
2022-08-17T01:57:04.939Z,18.21
2022-08-17T02:00:13.806Z,18.17
2022-08-17T02:03:22.990Z,18.17
2022-08-17T02:06:29.405Z,18.16
2022-08-17T02:09:35.627Z,18.15
2022-08-17T02:12:48.968Z,18.15
2022-08-17T02:15:55.308Z,18.13
2022-08-17T02:19:02.159Z,18.12
2022-08-17T02:22:08.401Z,18.11
2022-08-17T02:25:17.660Z,18.07
2022-08-17T02:28:23.914Z,18.02
2022-08-17T02:31:31.237Z,17.98
2022-08-17T02:34:37.676Z,17.94
2022-08-17T02:37:43.831Z,17.92
2022-08-17T02:40:55.243Z,17.90
2022-08-17T02:44:01.409Z,17.89
2022-08-17T02:47:07.858Z,17.87
2022-08-17T02:50:18.823Z,17.86
2022-08-17T02:53:25.750Z,17.84
2022-08-17T02:56:31.990Z,17.82
2022-08-17T02:59:38.391Z,17.80
2022-08-17T03:02:46.365Z,17.75
2022-08-17T03:05:53.433Z,17.73
2022-08-17T03:08:59.376Z,17.71
2022-08-17T03:12:08.358Z,17.69
2022-08-17T03:15:16.784Z,17.63
2022-08-17T03:18:26.329Z,17.59
2022-08-17T03:21:32.685Z,17.54
2022-08-17T03:24:38.898Z,17.52
2022-08-17T03:27:48.179Z,17.52
2022-08-17T03:30:56.427Z,17.49
2022-08-17T03:34:02.631Z,17.47
2022-08-17T03:37:08.908Z,17.46
2022-08-17T03:40:15.810Z,17.45
2022-08-17T03:43:41.931Z,17.43
2022-08-17T03:47:05.684Z,17.42
2022-08-17T03:50:34.217Z,17.41
2022-08-17T03:54:09.874Z,17.41
2022-08-17T03:57:16.489Z,17.41
2022-08-17T04:00:22.851Z,17.42
2022-08-17T04:03:29.031Z,17.41
2022-08-17T04:06:35.147Z,17.40
2022-08-17T04:09:43.074Z,17.41
2022-08-17T04:12:54.660Z,17.39
2022-08-17T04:16:00.850Z,17.41
2022-08-17T04:19:07.830Z,17.43
2022-08-17T04:22:31.766Z,17.46
2022-08-17T04:25:41.730Z,17.47
2022-08-17T04:28:48.266Z,17.45
2022-08-17T04:31:54.605Z,17.49
2022-08-17T04:35:00.956Z,17.52
2022-08-17T04:38:07.832Z,17.54
2022-08-17T04:41:33.350Z,17.57
2022-08-17T04:44:38.177Z,17.63
2022-08-17T04:47:44.171Z,17.71
2022-08-17T04:50:49.402Z,17.83
2022-08-17T04:54:01.754Z,17.92
2022-08-17T04:57:08.304Z,17.96
2022-08-17T05:00:16.181Z,18.04
2022-08-17T05:03:22.310Z,18.12
2022-08-17T05:06:29.895Z,18.20
2022-08-17T05:09:36.024Z,18.32
2022-08-17T05:12:42.340Z,18.43
2022-08-17T05:15:49.969Z,18.52
2022-08-17T05:18:56.712Z,18.60
2022-08-17T05:22:05.238Z,18.77
2022-08-17T05:25:12.217Z,18.95
2022-08-17T05:28:24.216Z,19.14
2022-08-17T05:31:34.042Z,19.34
2022-08-17T05:34:40.436Z,19.54
2022-08-17T05:37:46.665Z,19.74
2022-08-17T05:40:53.660Z,19.96
2022-08-17T05:43:59.867Z,20.14
2022-08-17T05:47:11.451Z,20.34
2022-08-17T05:50:27.170Z,20.50
2022-08-17T05:53:44.852Z,20.73
2022-08-17T05:57:12.754Z,20.93
2022-08-17T06:00:29.973Z,21.13
2022-08-17T06:03:45.962Z,21.32
2022-08-17T06:06:57.774Z,21.51
2022-08-17T06:10:13.799Z,21.72
2022-08-17T06:13:25.395Z,21.96
2022-08-17T06:16:37.610Z,22.21
2022-08-17T06:19:49.543Z,22.44
2022-08-17T06:23:04.126Z,22.62
2022-08-17T06:26:15.987Z,22.76
2022-08-17T06:29:33.611Z,22.93
2022-08-17T06:32:41.727Z,23.09
2022-08-17T06:36:02.882Z,23.33
2022-08-17T06:39:36.596Z,23.56
2022-08-17T06:42:59.994Z,23.84
2022-08-17T06:46:19.205Z,24.07
2022-08-17T06:49:29.374Z,24.26
2022-08-17T06:52:47.383Z,24.50
2022-08-17T06:56:01.364Z,24.78
2022-08-17T06:59:10.359Z,25.01
2022-08-17T07:02:20.703Z,25.23
2022-08-17T07:05:49.673Z,25.49
2022-08-17T07:09:01.204Z,25.76
2022-08-17T07:12:16.284Z,25.94
2022-08-17T07:15:28.760Z,26.16
2022-08-17T07:18:35.312Z,26.40
2022-08-17T07:21:55.151Z,26.60
2022-08-17T07:25:06.358Z,26.81
2022-08-17T07:28:13.133Z,27.01
2022-08-17T07:31:19.355Z,27.11
2022-08-17T07:34:25.500Z,27.29
2022-08-17T07:37:36.966Z,27.49
2022-08-17T07:40:45.693Z,27.66
2022-08-17T07:43:52.966Z,27.75
2022-08-17T07:47:16.959Z,27.82
2022-08-17T07:50:31.069Z,27.96
2022-08-17T07:53:37.260Z,28.16
2022-08-17T07:56:47.302Z,28.28
2022-08-17T08:03:32.181Z,28.47
2022-08-17T08:06:54.615Z,28.58
2022-08-17T08:10:12.985Z,28.67
2022-08-17T08:13:28.054Z,28.76
2022-08-17T08:16:32.487Z,28.75
2022-08-17T08:19:38.850Z,28.87
2022-08-17T08:22:53.814Z,28.92
2022-08-17T08:26:17.972Z,28.98
2022-08-17T08:29:33.022Z,29.02
2022-08-17T08:32:55.337Z,29.10
2022-08-17T08:36:08.986Z,29.20
2022-08-17T08:39:20.819Z,29.19
2022-08-17T08:42:33.124Z,29.22
2022-08-17T08:45:52.479Z,29.24
2022-08-17T08:49:14.374Z,29.27
2022-08-17T08:52:34.239Z,29.19
2022-08-17T08:55:49.689Z,29.27
2022-08-17T08:59:03.764Z,29.36
2022-08-17T09:02:35.212Z,29.46
2022-08-17T09:06:03.004Z,29.52
2022-08-17T09:09:19.159Z,29.56
2022-08-17T09:12:38.130Z,29.44
2022-08-17T09:15:47.485Z,29.39
2022-08-17T09:19:02.676Z,29.41
2022-08-17T09:22:25.635Z,29.57
2022-08-17T09:25:49.966Z,29.70
2022-08-17T09:29:01.694Z,29.82
2022-08-17T09:32:17.709Z,29.84
2022-08-17T09:35:36.579Z,29.76
2022-08-17T09:38:53.948Z,29.66
2022-08-17T09:42:07.938Z,29.74
2022-08-17T09:45:29.324Z,29.82
2022-08-17T09:48:40.728Z,29.73
2022-08-17T09:51:51.530Z,29.53
2022-08-17T09:55:00.231Z,29.59
2022-08-17T09:58:15.507Z,29.77
2022-08-17T10:01:31.469Z,29.81
2022-08-17T10:04:47.951Z,29.70
2022-08-17T10:08:01.935Z,29.71
2022-08-17T10:11:18.624Z,29.73
2022-08-17T10:14:37.305Z,29.90
2022-08-17T10:18:04.102Z,29.99
2022-08-17T10:21:29.924Z,30.15
2022-08-17T10:25:21.808Z,30.37
2022-08-17T10:28:31.215Z,30.54
2022-08-17T10:31:44.931Z,30.60
2022-08-17T10:35:19.027Z,30.54
2022-08-17T10:38:46.804Z,30.48
2022-08-17T10:41:57.819Z,30.42
2022-08-17T10:45:08.289Z,30.26
2022-08-17T10:48:33.095Z,30.06
2022-08-17T10:51:41.019Z,29.85
2022-08-17T11:35:28.595Z,25.33
2022-08-17T11:38:46.402Z,24.98
2022-08-17T11:41:58.766Z,24.76
2022-08-17T11:45:32.383Z,24.67
2022-08-17T11:49:07.336Z,24.71
2022-08-17T11:52:32.856Z,24.80
2022-08-17T11:56:06.501Z,24.97
2022-08-17T11:59:47.783Z,24.99
2022-08-17T12:03:39.997Z,24.92
2022-08-17T12:06:52.663Z,25.20
2022-08-17T12:10:01.629Z,25.44
2022-08-17T12:13:13.661Z,25.63
2022-08-17T12:16:21.830Z,25.89
2022-08-17T12:19:29.785Z,26.06
2022-08-17T12:22:46.576Z,26.12
2022-08-17T12:25:58.695Z,26.38
2022-08-17T12:29:09.225Z,26.43
2022-08-17T12:32:34.566Z,26.41
2022-08-17T12:35:40.839Z,26.40
2022-08-17T12:39:13.669Z,26.52
2022-08-17T12:42:31.232Z,26.60
2022-08-17T12:45:40.385Z,26.69
2022-08-17T12:48:54.966Z,26.88
2022-08-17T12:52:12.817Z,27.06
2022-08-17T12:55:25.226Z,27.21
2022-08-17T12:58:38.844Z,27.37
2022-08-17T13:01:46.283Z,27.57
2022-08-17T13:04:52.568Z,27.70
2022-08-17T13:08:00.648Z,27.83
2022-08-17T13:11:09.928Z,27.98
2022-08-17T13:14:20.498Z,28.09
2022-08-17T13:17:34.743Z,28.22
2022-08-17T13:20:40.998Z,28.33
2022-08-17T13:23:57.932Z,28.46
2022-08-17T13:27:15.426Z,28.56
2022-08-17T13:30:28.273Z,28.62
2022-08-17T13:33:44.977Z,28.67
2022-08-17T13:36:53.298Z,28.73
2022-08-17T13:40:03.335Z,28.77
2022-08-17T13:43:09.843Z,28.82
2022-08-17T13:46:21.548Z,28.86
2022-08-17T13:49:48.174Z,28.91
2022-08-17T13:52:54.831Z,28.96
2022-08-17T13:56:04.003Z,28.98
2022-08-17T13:59:13.098Z,29.01
2022-08-17T14:02:21.422Z,29.04
2022-08-17T14:05:28.042Z,29.11
2022-08-17T14:08:34.234Z,29.18
2022-08-17T14:11:40.437Z,29.21
2022-08-17T14:14:48.062Z,29.23
2022-08-17T14:17:54.812Z,29.20
2022-08-17T14:21:01.316Z,29.16
2022-08-17T14:24:10.091Z,29.12
2022-08-17T14:27:18.139Z,29.16
2022-08-17T14:30:28.838Z,29.10
2022-08-17T14:33:36.665Z,29.03
2022-08-17T14:36:48.235Z,29.03
2022-08-17T14:39:57.118Z,29.02
2022-08-17T14:43:03.346Z,29.01
2022-08-17T14:46:12.251Z,29.01
2022-08-17T14:49:19.855Z,29.02
2022-08-17T14:52:26.524Z,28.97
2022-08-17T14:55:32.737Z,28.95
2022-08-17T14:58:39.360Z,28.96
2022-08-17T15:01:47.854Z,28.98
2022-08-17T15:04:54.521Z,28.99
2022-08-17T15:08:03.234Z,28.99
2022-08-17T15:11:11.904Z,29.00
2022-08-17T15:14:20.741Z,28.97
2022-08-17T15:17:26.973Z,28.92
2022-08-17T15:20:52.870Z,28.90
2022-08-17T15:23:59.379Z,28.87
2022-08-17T15:27:05.924Z,28.88
2022-08-17T15:30:13.594Z,28.92
2022-08-17T15:33:22.097Z,28.94
2022-08-17T15:36:28.598Z,28.91
2022-08-17T15:39:34.756Z,28.87
2022-08-17T15:42:41.648Z,28.86
2022-08-17T15:45:59.674Z,28.85
2022-08-17T15:49:06.560Z,28.87
2022-08-17T15:52:20.472Z,28.88
2022-08-17T15:55:28.095Z,28.88
2022-08-17T15:58:34.550Z,28.84
2022-08-17T16:03:14.822Z,28.68
2022-08-17T16:05:11.408Z,28.38
2022-08-17T16:08:21.313Z,28.14
2022-08-17T16:11:28.074Z,27.97
2022-08-17T16:14:35.265Z,27.77
2022-08-17T16:17:42.401Z,27.60
2022-08-17T16:20:48.590Z,27.51
2022-08-17T16:23:58.397Z,27.39
2022-08-17T16:27:05.025Z,27.30
2022-08-17T16:30:19.499Z,27.21
2022-08-17T16:33:25.667Z,27.13
2022-08-17T16:36:31.819Z,27.02
2022-08-17T16:39:39.284Z,26.94
2022-08-17T16:42:49.296Z,26.87
2022-08-17T16:45:55.593Z,26.77
2022-08-17T16:49:02.173Z,26.69
2022-08-17T16:52:11.282Z,26.62
2022-08-17T16:55:19.016Z,26.54
2022-08-17T16:58:25.198Z,26.48
2022-08-17T17:01:32.053Z,26.43
2022-08-17T17:04:43.582Z,26.37
2022-08-17T17:08:03.434Z,26.33
2022-08-17T17:11:15.990Z,26.30
2022-08-17T17:14:28.627Z,26.26
2022-08-17T17:17:38.260Z,26.21
2022-08-17T17:20:51.169Z,26.13
2022-08-17T17:24:01.538Z,26.05
2022-08-17T17:27:29.700Z,25.96
2022-08-17T17:30:47.105Z,25.84
2022-08-17T17:33:57.798Z,25.75
2022-08-17T17:37:09.004Z,25.70
2022-08-17T17:40:23.734Z,25.63
2022-08-17T17:43:40.106Z,25.56
2022-08-17T17:46:50.564Z,25.45
2022-08-17T17:49:56.750Z,25.34
2022-08-17T17:53:07.649Z,25.22
2022-08-17T17:56:43.159Z,25.13
2022-08-17T17:59:56.824Z,25.06
2022-08-17T18:03:26.022Z,25.00
2022-08-17T18:06:45.655Z,24.90
2022-08-17T18:10:29.506Z,24.83
2022-08-17T18:13:57.253Z,24.75
2022-08-17T18:17:04.987Z,24.68
2022-08-17T18:20:11.587Z,24.63
2022-08-17T18:23:18.056Z,24.54
2022-08-17T18:26:50.383Z,24.44
2022-08-17T18:30:00.236Z,24.35
2022-08-17T18:33:23.839Z,24.26
2022-08-17T18:36:33.520Z,24.18
2022-08-17T18:39:39.890Z,24.13
2022-08-17T18:42:56.955Z,24.03
2022-08-17T18:46:29.021Z,23.94
2022-08-17T18:49:36.474Z,23.84
2022-08-17T18:52:42.536Z,23.76
2022-08-17T18:55:48.933Z,23.70
2022-08-17T18:59:02.240Z,23.64
2022-08-17T19:02:44.254Z,23.57
2022-08-17T19:05:53.780Z,23.49
2022-08-17T19:09:00.921Z,23.41
2022-08-17T19:12:27.180Z,23.36
2022-08-17T19:15:41.146Z,23.27
2022-08-17T19:18:53.612Z,23.21
2022-08-17T19:22:07.166Z,23.14
2022-08-17T19:25:21.815Z,23.09
2022-08-17T19:28:35.057Z,23.05
2022-08-17T19:31:41.816Z,22.98
2022-08-17T19:34:48.287Z,22.88
2022-08-17T19:38:13.010Z,22.79
2022-08-17T19:41:26.251Z,22.69
2022-08-17T19:44:56.405Z,22.65
2022-08-17T19:48:13.714Z,22.60
2022-08-17T19:51:28.310Z,22.54
2022-08-17T19:54:39.246Z,22.49
2022-08-17T19:57:54.123Z,22.44
2022-08-17T20:01:00.461Z,22.36
2022-08-17T20:04:14.347Z,22.30
2022-08-17T20:07:25.062Z,22.26
2022-08-17T20:10:39.720Z,22.24
2022-08-17T20:13:51.194Z,22.18
2022-08-17T20:17:02.462Z,22.12
2022-08-17T20:20:27.714Z,22.07
2022-08-17T20:23:47.323Z,22.00
2022-08-17T20:26:58.439Z,21.97
2022-08-17T20:30:33.259Z,21.92
2022-08-17T20:33:40.160Z,21.84
2022-08-17T20:37:02.282Z,21.80
2022-08-17T20:40:31.797Z,21.76
2022-08-17T20:44:07.243Z,21.74
2022-08-17T20:47:27.031Z,21.69
2022-08-17T20:50:37.970Z,21.62
2022-08-17T20:54:07.749Z,21.59
2022-08-17T20:57:48.721Z,21.57
2022-08-17T21:01:14.363Z,21.53
2022-08-17T21:04:48.422Z,21.50
2022-08-17T21:08:14.147Z,21.47
2022-08-17T21:12:04.392Z,21.42
2022-08-17T21:15:28.869Z,21.36
2022-08-17T21:18:42.644Z,21.34
2022-08-17T21:22:02.002Z,21.28
2022-08-17T21:25:22.200Z,21.21
2022-08-17T21:28:37.636Z,21.15
2022-08-17T21:32:23.733Z,21.08
2022-08-17T21:35:47.906Z,21.00
2022-08-17T21:39:01.976Z,20.92
2022-08-17T21:42:10.524Z,20.87
2022-08-17T21:45:23.972Z,20.82
2022-08-17T21:48:32.387Z,20.79
2022-08-17T21:51:44.938Z,20.77
2022-08-17T21:54:56.246Z,20.78
2022-08-17T21:58:13.896Z,20.76
2022-08-17T22:01:27.289Z,20.73
2022-08-17T22:04:35.779Z,20.70
2022-08-17T22:07:44.557Z,20.64
2022-08-17T22:10:52.631Z,20.61
2022-08-17T22:14:05.814Z,20.58
2022-08-17T22:17:19.312Z,20.54
2022-08-17T22:20:25.827Z,20.48
2022-08-17T22:23:52.771Z,20.44
2022-08-17T22:27:07.702Z,20.42
2022-08-17T22:30:20.947Z,20.39
2022-08-17T22:33:40.038Z,20.34
2022-08-17T22:36:46.338Z,20.25
2022-08-17T22:40:01.018Z,20.18
2022-08-17T22:43:13.015Z,20.12
2022-08-17T22:46:21.378Z,20.07
2022-08-17T22:49:38.795Z,20.05
2022-08-17T22:53:21.076Z,20.03
2022-08-17T22:56:45.793Z,20.00
2022-08-17T22:59:55.199Z,19.95
2022-08-17T23:03:12.405Z,19.92
2022-08-17T23:06:18.672Z,19.91
2022-08-17T23:09:24.910Z,19.89
2022-08-17T23:12:31.101Z,19.84
2022-08-17T23:15:37.999Z,19.78
2022-08-17T23:18:44.507Z,19.75
2022-08-17T23:21:55.591Z,19.75
2022-08-17T23:25:01.814Z,19.70
2022-08-17T23:28:09.365Z,19.63
2022-08-17T23:31:19.853Z,19.59
2022-08-17T23:34:32.225Z,19.55
2022-08-17T23:37:39.247Z,19.52
2022-08-17T23:40:45.458Z,19.50
2022-08-17T23:43:53.783Z,19.45
2022-08-17T23:47:00.371Z,19.41
2022-08-17T23:50:07.187Z,19.38
2022-08-17T23:53:13.396Z,19.32
2022-08-17T23:56:24.591Z,19.25
2022-08-17T23:59:31.009Z,19.20
